Time;durP1;ratioP1;P1;durP2;ratioP2;P2;SDS_P1;SDS_P2;PMS_P1;PMS_P2;Temp;Humidity;BMP_temperature;BMP_pressure;BME280_temperature;BME280_humidity;BME280_pressure;Samples;Min_cycle;Max_cycle;Signal;HPM_P1;HPM_P2
2022/07/18 00:01:43;;;;;;;1.47;1.37;;;;;;;24.62;39.69;99922.28;5135031;27;20704;-68
2022/07/18 00:04:10;;;;;;;1.90;1.40;;;;;;;24.64;40.11;99922.16;5135560;27;20661;-68
2022/07/18 00:06:37;;;;;;;1.47;1.37;;;;;;;24.65;40.89;99929.91;5134921;27;20194;-67
2022/07/18 00:09:04;;;;;;;1.33;1.33;;;;;;;24.65;40.97;99929.91;5127568;27;20254;-68
2022/07/18 00:11:31;;;;;;;1.17;1.17;;;;;;;24.63;40.83;99925.72;5135638;27;20198;-68
2022/07/18 00:13:58;;;;;;;1.40;1.40;;;;;;;24.62;41.00;99929.34;5135460;27;20577;-68
2022/07/18 00:16:25;;;;;;;3.33;1.77;;;;;;;24.60;41.54;99932.06;5135686;27;20189;-68
2022/07/18 00:18:54;;;;;;;2.87;1.43;;;;;;;24.57;41.22;99937.56;5114760;28;20203;-68
2022/07/18 00:21:22;;;;;;;1.10;1.10;;;;;;;24.49;41.63;99934.72;5114664;28;20246;-68
2022/07/18 00:23:48;;;;;;;1.57;1.47;;;;;;;24.37;41.77;99931.25;5114493;28;20203;-68
2022/07/18 00:26:15;;;;;;;1.37;1.37;;;;;;;24.32;42.02;99928.19;5114986;28;20210;-68
2022/07/18 00:28:42;;;;;;;1.40;1.40;;;;;;;24.33;41.45;99936.88;5114579;28;20651;-68
2022/07/18 00:31:09;;;;;;;1.60;1.43;;;;;;;24.03;41.87;99906.84;5114607;28;20187;-68
2022/07/18 00:33:36;;;;;;;2.53;2.00;;;;;;;24.14;41.82;99928.75;5120978;27;20197;-68
2022/07/18 00:36:04;;;;;;;3.00;1.87;;;;;;;23.84;41.54;99924.94;5119027;27;20206;-68
2022/07/18 00:38:31;;;;;;;1.80;1.80;;;;;;;23.83;42.04;99925.03;5114534;28;20690;-68
2022/07/18 00:40:58;;;;;;;2.07;1.80;;;;;;;23.73;42.27;99910.97;5114262;28;20237;-68
2022/07/18 00:43:25;;;;;;;1.83;1.47;;;;;;;23.82;42.26;99929.41;5114504;28;20578;-68
2022/07/18 00:45:52;;;;;;;1.90;1.70;;;;;;;23.82;41.37;99924.19;5114222;28;20198;-67
2022/07/18 00:48:20;;;;;;;2.00;1.20;;;;;;;23.74;40.88;99921.34;5114180;28;20190;-68
2022/07/18 00:50:48;;;;;;;1.50;1.40;;;;;;;23.54;41.12;99922.00;5113931;28;20221;-68
2022/07/18 00:53:16;;;;;;;1.63;1.53;;;;;;;23.36;41.22;99921.56;5114226;28;20198;-68
2022/07/18 00:55:47;;;;;;;1.40;1.30;;;;;;;23.30;40.83;99922.00;5114245;28;20202;-68
2022/07/18 00:58:14;;;;;;;1.73;1.20;;;;;;;22.98;40.20;99921.75;5114103;28;20199;-68
2022/07/18 01:03:26;;;;;;;1.70;1.60;;;;;;;22.93;41.11;99930.91;5134500;27;20205;-68
2022/07/18 01:05:53;;;;;;;1.93;1.83;;;;;;;22.96;40.88;99930.69;5134311;27;20605;-67
2022/07/18 01:08:22;;;;;;;2.40;1.20;;;;;;;22.83;40.85;99909.81;5131020;27;20577;-68
2022/07/18 01:10:50;;;;;;;0.90;0.90;;;;;;;23.04;40.35;99940.59;5132530;27;20574;-68
2022/07/18 01:13:16;;;;;;;1.47;1.37;;;;;;;23.05;40.27;99942.25;5133847;27;20267;-68
2022/07/18 01:15:43;;;;;;;1.30;1.30;;;;;;;23.01;40.79;99936.41;5132905;27;20204;-68
2022/07/18 01:18:10;;;;;;;1.03;1.03;;;;;;;23.06;39.82;99936.06;5134380;27;20205;-68
2022/07/18 01:20:38;;;;;;;1.80;1.30;;;;;;;23.00;39.32;99938.16;5134358;27;20190;-68
2022/07/18 01:23:05;;;;;;;1.37;1.33;;;;;;;22.98;39.51;99936.63;5113403;28;20214;-68
2022/07/18 01:25:32;;;;;;;8.00;1.37;;;;;;;22.91;39.52;99945.84;5113637;27;20195;-68
2022/07/18 01:27:59;;;;;;;1.50;1.40;;;;;;;22.85;39.95;99951.53;5116359;27;20206;-68
2022/07/18 01:30:26;;;;;;;1.40;1.30;;;;;;;22.78;40.51;99935.44;5115060;27;20199;-68
2022/07/18 01:32:58;;;;;;;1.50;1.50;;;;;;;22.74;40.34;99944.47;5115423;27;20202;-68
2022/07/18 01:35:25;;;;;;;1.40;1.40;;;;;;;22.64;40.44;99938.19;5111894;27;20206;-68
2022/07/18 01:37:54;;;;;;;1.20;1.20;;;;;;;22.55;41.02;99938.84;5111412;27;20199;-68
2022/07/18 01:40:21;;;;;;;5.10;1.20;;;;;;;22.56;41.25;99940.50;5111054;28;20199;-68
2022/07/18 01:42:48;;;;;;;1.30;1.20;;;;;;;22.61;41.06;99948.03;5111475;28;20215;-68
2022/07/18 01:45:15;;;;;;;1.17;1.17;;;;;;;22.62;41.00;99949.72;5111877;28;20195;-68
2022/07/18 01:47:42;;;;;;;1.53;1.53;;;;;;;22.50;40.66;99930.50;5113402;28;20753;-67
2022/07/18 01:50:11;;;;;;;1.80;1.20;;;;;;;22.47;40.61;99946.38;5112946;28;20194;-67
2022/07/18 01:52:38;;;;;;;2.73;1.50;;;;;;;22.38;41.27;99949.66;5112827;28;20223;-68
2022/07/18 01:55:08;;;;;;;2.30;1.33;;;;;;;22.32;41.69;99947.47;5112854;28;20259;-68
2022/07/18 01:57:35;;;;;;;1.63;1.53;;;;;;;22.11;42.44;99941.09;5112935;28;20202;-68
2022/07/18 02:00:02;;;;;;;2.00;1.53;;;;;;;21.94;43.80;99931.81;5112903;28;20206;-68
2022/07/18 02:02:29;;;;;;;1.73;1.60;;;;;;;22.03;43.70;99941.66;5112633;28;20214;-68
2022/07/18 02:05:02;;;;;;;1.47;1.47;;;;;;;22.01;43.82;99947.88;5112823;28;20198;-68
2022/07/18 02:07:32;;;;;;;1.53;1.40;;;;;;;21.98;44.08;99947.16;5112535;28;20622;-68
2022/07/18 02:09:59;;;;;;;1.13;1.13;;;;;;;21.91;43.80;99948.53;5112959;28;20190;-68
2022/07/18 02:12:28;;;;;;;1.80;1.70;;;;;;;21.87;43.24;99947.03;5112741;28;20273;-67
2022/07/18 02:14:55;;;;;;;1.40;1.40;;;;;;;21.76;43.32;99944.31;5112841;28;20222;-68
2022/07/18 02:17:22;;;;;;;1.70;1.60;;;;;;;21.67;43.33;99950.16;5115861;27;20197;-67
2022/07/18 02:19:48;;;;;;;2.70;1.40;;;;;;;21.56;43.83;99962.22;5112488;28;20203;-68
2022/07/18 02:22:16;;;;;;;1.60;1.50;;;;;;;21.56;44.59;99965.69;5111860;28;20245;-68
2022/07/18 02:24:43;;;;;;;1.27;1.20;;;;;;;21.60;44.44;99967.16;5112011;28;20217;-67
2022/07/18 02:27:10;;;;;;;1.33;1.23;;;;;;;21.63;44.43;99964.34;5112345;27;20266;-69
2022/07/18 02:29:39;;;;;;;13.83;2.20;;;;;;;21.68;44.67;99962.25;5122737;27;20198;-68
2022/07/18 02:32:06;;;;;;;5.67;2.20;;;;;;;21.71;44.80;99951.59;5129668;27;20204;-68
2022/07/18 02:34:33;;;;;;;1.60;1.60;;;;;;;21.76;45.56;99959.97;5132448;27;20289;-68
2022/07/18 02:37:01;;;;;;;1.97;1.87;;;;;;;21.79;46.41;99966.75;5133003;27;20543;-68
2022/07/18 02:39:28;;;;;;;2.40;2.30;;;;;;;21.75;46.57;99963.50;5132619;27;20194;-67
2022/07/18 02:41:55;;;;;;;2.13;2.03;;;;;;;21.71;46.72;99971.66;5132442;27;20206;-68
2022/07/18 02:44:23;;;;;;;2.07;1.97;;;;;;;21.61;46.78;99974.06;5132431;27;20208;-68
2022/07/18 02:46:51;;;;;;;1.50;1.50;;;;;;;21.61;47.18;99975.81;5132523;27;20317;-68
2022/07/18 02:49:27;;;;;;;1.97;1.83;;;;;;;21.47;47.18;99971.50;5132387;27;20748;-68
2022/07/18 02:51:58;;;;;;;2.37;2.23;;;;;;;21.42;47.29;99965.78;5132306;27;20269;-68
2022/07/18 02:54:26;;;;;;;2.23;2.03;;;;;;;21.48;48.22;99975.81;5132432;27;20687;-68
2022/07/18 02:56:53;;;;;;;2.30;2.30;;;;;;;21.37;48.25;99967.84;5132073;27;20195;-68
2022/07/18 02:59:21;;;;;;;1.97;1.87;;;;;;;21.26;49.05;99972.94;5132351;27;20685;-68
2022/07/18 03:01:49;;;;;;;2.60;2.10;;;;;;;21.18;49.50;99983.00;5131798;27;20760;-68
2022/07/18 03:04:18;;;;;;;1.80;1.70;;;;;;;21.06;50.02;99973.34;5132406;27;20277;-69
2022/07/18 03:06:45;;;;;;;2.43;2.33;;;;;;;21.01;50.64;99980.59;5131828;27;20206;-68
2022/07/18 03:09:13;;;;;;;2.57;2.37;;;;;;;20.91;50.74;99981.19;5132470;27;20670;-69
2022/07/18 03:11:40;;;;;;;2.73;2.53;;;;;;;20.80;51.07;99978.44;5131939;27;20603;-69
2022/07/18 03:14:07;;;;;;;3.07;2.77;;;;;;;20.41;51.60;99934.03;5112242;27;20664;-69
2022/07/18 03:16:34;;;;;;;2.43;2.23;;;;;;;20.59;52.33;99978.91;5117436;27;20207;-69
2022/07/18 03:19:01;;;;;;;2.63;2.43;;;;;;;20.46;53.48;99983.22;5130494;27;20209;-68
2022/07/18 03:21:30;;;;;;;3.23;2.30;;;;;;;20.37;54.25;99984.63;5131328;27;20205;-69
2022/07/18 03:23:56;;;;;;;3.03;2.10;;;;;;;20.18;54.50;99958.00;5110682;27;20196;-68
2022/07/18 03:26:23;;;;;;;1.93;1.83;;;;;;;20.35;54.87;99991.69;5121039;27;20694;-68
2022/07/18 03:28:50;;;;;;;3.90;2.00;;;;;;;20.37;55.43;99987.22;5113595;27;20580;-68
2022/07/18 03:31:18;;;;;;;1.70;1.70;;;;;;;20.39;55.04;99993.16;5111276;28;20571;-69
2022/07/18 03:33:44;;;;;;;2.50;2.30;;;;;;;20.36;55.10;99990.75;5110556;28;20224;-69
2022/07/18 03:36:11;;;;;;;2.70;2.57;;;;;;;20.38;54.76;100001.94;5130774;27;20202;-69
2022/07/18 03:38:42;;;;;;;2.17;2.00;;;;;;;20.41;55.48;99992.16;5131211;27;20206;-69
2022/07/18 03:41:10;;;;;;;3.43;1.90;;;;;;;20.44;55.07;100001.56;5129537;28;20622;-69
2022/07/18 03:43:36;;;;;;;2.00;1.90;;;;;;;20.51;54.67;99999.41;5129885;28;20211;-69
2022/07/18 03:46:03;;;;;;;2.20;2.10;;;;;;;20.55;54.76;99998.31;5109230;28;20211;-69
2022/07/18 03:48:30;;;;;;;3.00;1.97;;;;;;;20.64;55.18;100009.00;5109298;28;20738;-69
2022/07/18 03:50:57;;;;;;;2.47;2.37;;;;;;;20.71;54.12;100005.06;5109026;28;20220;-68
2022/07/18 03:53:24;;;;;;;3.13;1.97;;;;;;;20.79;53.95;100010.63;5109277;28;20200;-69
2022/07/18 03:55:52;;;;;;;3.60;1.70;;;;;;;20.89;53.59;100008.28;5110000;28;20204;-69
2022/07/18 03:58:19;;;;;;;1.93;1.87;;;;;;;20.95;53.61;100010.50;5111045;28;20197;-69
2022/07/18 04:00:46;;;;;;;2.07;1.93;;;;;;;21.09;52.83;100020.06;5111108;28;20198;-69
2022/07/18 04:03:13;;;;;;;2.43;2.10;;;;;;;21.23;52.43;100017.44;5110950;28;20563;-69
2022/07/18 04:05:39;;;;;;;4.50;2.30;;;;;;;21.33;52.52;100013.31;5129656;28;20201;-69
2022/07/18 04:08:06;;;;;;;1.83;1.73;;;;;;;21.48;51.02;100019.31;5131332;28;20840;-69
2022/07/18 04:10:33;;;;;;;2.13;2.03;;;;;;;21.60;50.25;100011.53;5111120;28;20556;-69
2022/07/18 04:13:02;;;;;;;8.10;2.00;;;;;;;21.77;49.88;100013.88;5110787;28;20209;-69
2022/07/18 04:15:31;;;;;;;3.13;1.73;;;;;;;21.90;49.38;100012.13;5110926;28;20198;-62
2022/07/18 04:17:58;;;;;;;1.53;1.53;;;;;;;21.97;49.84;100013.38;5111008;28;20644;-63
2022/07/18 04:20:25;;;;;;;2.00;1.90;;;;;;;22.09;48.62;100013.50;5114010;28;20198;-63
2022/07/18 04:22:53;;;;;;;1.70;1.70;;;;;;;22.16;47.74;100005.16;5124310;27;20217;-63
2022/07/18 04:25:21;;;;;;;6.17;2.53;;;;;;;22.27;48.41;100022.69;5121254;27;20210;-63
2022/07/18 04:27:49;;;;;;;1.77;1.67;;;;;;;22.44;47.99;100019.75;5111792;28;20207;-63
2022/07/18 04:30:20;;;;;;;1.83;1.37;;;;;;;22.66;47.61;100035.66;5112171;28;20202;-62
2022/07/18 04:32:47;;;;;;;1.77;1.67;;;;;;;22.80;48.35;100032.91;5131504;28;20217;-63
2022/07/18 04:35:14;;;;;;;2.87;2.50;;;;;;;23.02;48.74;100038.28;5131084;28;20198;-63
2022/07/18 04:37:41;;;;;;;1.27;1.27;;;;;;;23.34;47.44;100040.38;5131256;28;20551;-63
2022/07/18 04:40:10;;;;;;;2.60;1.87;;;;;;;23.65;46.43;100044.25;5131179;28;20202;-63
2022/07/18 04:42:37;;;;;;;1.80;1.67;;;;;;;23.96;46.58;100051.47;5131049;28;20220;-63
2022/07/18 04:45:05;;;;;;;3.50;1.33;;;;;;;24.26;45.57;100054.44;5131091;27;20689;-63
2022/07/18 04:47:33;;;;;;;1.30;1.30;;;;;;;24.46;44.82;100048.47;5114665;28;20233;-63
2022/07/18 04:50:00;;;;;;;2.40;1.37;;;;;;;24.61;43.80;100051.72;5114008;28;20670;-63
2022/07/18 04:52:27;;;;;;;1.63;1.60;;;;;;;24.77;44.93;100060.06;5113871;28;20226;-63
2022/07/18 04:54:54;;;;;;;2.60;1.47;;;;;;;25.01;43.10;100058.16;5113883;28;20203;-63
2022/07/18 04:57:21;;;;;;;1.80;1.50;;;;;;;25.22;41.36;100065.28;5114062;28;20282;-65
2022/07/18 04:59:48;;;;;;;5.43;1.40;;;;;;;25.39;40.46;100072.63;5114127;28;20198;-63
2022/07/18 05:02:15;;;;;;;1.50;1.40;;;;;;;25.52;41.38;100066.31;5113770;28;20602;-65
2022/07/18 05:04:43;;;;;;;4.30;1.63;;;;;;;25.76;40.64;100065.22;5113989;28;20195;-63
2022/07/18 05:07:10;;;;;;;1.47;1.40;;;;;;;25.64;38.57;100069.72;5113694;28;20213;-63
2022/07/18 05:09:36;;;;;;;1.47;1.37;;;;;;;25.63;39.95;100075.91;5113675;28;20202;-63
2022/07/18 05:12:04;;;;;;;1.17;1.17;;;;;;;25.66;39.59;100078.28;5113886;28;20225;-63
2022/07/18 05:14:31;;;;;;;1.10;1.10;;;;;;;25.68;38.82;100063.25;5113580;28;20241;-63
2022/07/18 05:16:58;;;;;;;1.40;0.97;;;;;;;25.57;38.33;100065.91;5113708;28;20201;-63
2022/07/18 05:19:25;;;;;;;1.03;1.03;;;;;;;25.66;39.51;100065.16;5118333;27;20272;-63
2022/07/18 05:21:53;;;;;;;1.37;1.37;;;;;;;25.71;37.10;100062.16;5116977;27;20258;-63
2022/07/18 05:24:19;;;;;;;1.13;1.00;;;;;;;25.84;37.83;100074.16;5115082;27;20218;-63
2022/07/18 05:26:46;;;;;;;2.17;1.13;;;;;;;26.02;37.74;100071.78;5113442;27;20194;-63
2022/07/18 05:29:13;;;;;;;1.07;1.07;;;;;;;26.22;36.19;100073.63;5113594;28;20578;-63
2022/07/18 05:31:41;;;;;;;1.13;1.13;;;;;;;26.25;35.98;100077.78;5113199;28;20210;-62
2022/07/18 05:34:08;;;;;;;1.07;1.07;;;;;;;26.22;37.11;100078.88;5113552;28;20206;-62
2022/07/18 05:36:35;;;;;;;1.10;1.10;;;;;;;26.29;36.45;100076.56;5113363;28;20195;-61
2022/07/18 05:39:04;;;;;;;1.60;1.13;;;;;;;26.36;34.66;100075.09;5113321;28;20199;-62
2022/07/18 05:41:30;;;;;;;0.90;0.90;;;;;;;26.42;37.98;100069.31;5113158;28;20206;-62
2022/07/18 05:43:57;;;;;;;0.90;0.90;;;;;;;26.69;38.13;100071.38;5113017;27;20219;-62
2022/07/18 05:46:24;;;;;;;0.80;0.80;;;;;;;27.02;37.40;100078.97;5113119;27;20202;-63
2022/07/18 05:48:51;;;;;;;1.80;0.90;;;;;;;27.33;35.06;100077.13;5133639;27;20602;-62
2022/07/18 05:51:19;;;;;;;2.33;1.07;;;;;;;27.48;35.72;100076.63;5133396;27;20229;-62
2022/07/18 05:53:49;;;;;;;19.37;2.60;;;;;;;27.46;34.76;100078.56;5133425;27;20191;-62
2022/07/18 05:56:17;;;;;;;16.13;2.93;;;;;;;27.64;35.64;100066.38;5133616;27;20194;-61
2022/07/18 05:58:44;;;;;;;9.37;1.37;;;;;;;27.87;35.54;100066.09;5112666;28;20203;-62
2022/07/18 06:01:10;;;;;;;1.87;1.10;;;;;;;28.08;36.17;100062.34;5113287;28;20578;-62
2022/07/18 06:03:37;;;;;;;3.93;1.40;;;;;;;28.32;36.55;100061.03;5122917;27;20623;-62
2022/07/18 06:06:04;;;;;;;0.80;0.80;;;;;;;28.54;36.18;100073.88;5114609;27;20203;-62
2022/07/18 06:08:31;;;;;;;0.70;0.70;;;;;;;28.76;33.17;100070.91;5133097;27;20205;-61
2022/07/18 06:10:58;;;;;;;1.60;1.60;;;;;;;28.96;33.73;100071.63;5132927;27;20244;-62
2022/07/18 06:13:26;;;;;;;0.80;0.80;;;;;;;29.12;33.99;100077.94;5133011;27;20186;-62
2022/07/18 06:15:53;;;;;;;1.63;0.80;;;;;;;29.17;34.31;100078.34;5129951;27;20200;-62
2022/07/18 06:18:20;;;;;;;0.90;0.90;;;;;;;29.35;33.56;100072.25;5122041;27;20646;-62
2022/07/18 06:20:47;;;;;;;0.90;0.90;;;;;;;29.62;33.92;100064.28;5117844;27;20206;-62
2022/07/18 06:23:14;;;;;;;1.95;1.00;;;;;;;29.88;32.99;100065.19;5114742;27;20219;-61
2022/07/18 06:25:41;;;;;;;1.10;1.00;;;;;;;30.04;32.68;100060.03;5112233;28;20206;-62
2022/07/18 06:28:07;;;;;;;1.63;1.40;;;;;;;30.13;29.89;100063.56;5114807;27;20203;-61
2022/07/18 06:30:36;;;;;;;0.80;0.80;;;;;;;30.42;31.42;100065.91;5112262;28;20689;-62
2022/07/18 06:33:05;;;;;;;0.70;0.70;;;;;;;30.50;29.90;100071.28;5111884;28;20198;-62
2022/07/18 06:35:32;;;;;;;1.02;1.02;;;;;;;30.66;30.59;100063.41;5111880;28;20203;-62
2022/07/18 06:37:59;;;;;;;0.93;0.93;;;;;;;30.75;31.13;100065.09;5111787;27;20203;-63
2022/07/18 06:40:26;;;;;;;0.90;0.90;;;;;;;30.99;29.81;100059.91;5111783;28;20686;-62
2022/07/18 06:42:53;;;;;;;0.80;0.80;;;;;;;31.21;29.95;100061.16;5112134;28;20214;-62
2022/07/18 06:45:19;;;;;;;0.70;0.70;;;;;;;31.29;29.37;100073.56;5111752;28;20206;-62
2022/07/18 06:47:48;;;;;;;0.80;0.80;;;;;;;31.10;29.21;100064.09;5111991;28;20579;-62
2022/07/18 06:50:15;;;;;;;0.90;0.90;;;;;;;31.17;29.49;100067.75;5130981;27;20194;-62
2022/07/18 06:52:43;;;;;;;1.35;1.30;;;;;;;31.24;29.21;100068.78;5132174;27;20229;-68
2022/07/18 06:55:11;;;;;;;0.95;0.95;;;;;;;31.51;30.35;100067.66;5132376;27;20202;-68
2022/07/18 06:57:38;;;;;;;0.80;0.80;;;;;;;31.87;29.77;100065.53;5132609;27;20205;-68
2022/07/18 07:00:06;;;;;;;1.25;1.25;;;;;;;31.79;27.16;100069.03;5132484;27;20198;-68
2022/07/18 07:02:33;;;;;;;0.88;0.88;;;;;;;31.80;28.79;100073.31;5132674;27;20745;-67
2022/07/18 07:05:01;;;;;;;0.93;0.93;;;;;;;31.65;29.76;100065.22;5132268;27;20209;-68
2022/07/18 07:07:29;;;;;;;2.20;1.00;;;;;;;31.71;29.16;100069.03;5131861;27;20204;-68
2022/07/18 07:09:55;;;;;;;0.80;0.80;;;;;;;31.86;27.73;100072.66;5131371;27;20237;-68
2022/07/18 07:12:22;;;;;;;2.88;1.00;;;;;;;32.07;28.65;100064.22;5132275;27;20227;-68
2022/07/18 07:14:49;;;;;;;0.65;0.65;;;;;;;32.28;29.75;100061.06;5129831;27;20209;-68
2022/07/18 07:17:16;;;;;;;0.77;0.77;;;;;;;32.53;27.50;100070.59;5120550;27;20211;-67
2022/07/18 07:19:43;;;;;;;0.85;0.85;;;;;;;32.79;28.16;100060.59;5126429;27;20198;-68
2022/07/18 07:22:11;;;;;;;0.80;0.80;;;;;;;32.85;25.90;100070.53;5120071;27;20198;-68
2022/07/18 07:24:39;;;;;;;0.80;0.80;;;;;;;33.06;25.94;100067.25;5127488;27;20287;-68
2022/07/18 07:27:06;;;;;;;1.00;1.00;;;;;;;33.25;25.77;100067.66;5132026;27;20559;-68
2022/07/18 07:29:33;;;;;;;0.73;0.73;;;;;;;33.31;24.89;100066.16;5131741;27;20209;-68
2022/07/18 07:32:00;;;;;;;1.52;1.10;;;;;;;33.57;25.41;100071.94;5132203;27;20683;-68
2022/07/18 07:34:28;;;;;;;1.10;1.00;;;;;;;33.62;28.18;100060.81;5131866;27;20194;-68
2022/07/18 07:36:55;;;;;;;0.70;0.70;;;;;;;33.84;24.93;100057.28;5116406;28;20199;-68
2022/07/18 07:39:23;;;;;;;2.20;0.85;;;;;;;34.07;25.78;100063.41;5113944;27;20198;-67
2022/07/18 07:41:50;;;;;;;1.30;1.20;;;;;;;34.26;26.95;100052.25;5131872;28;20279;-68
2022/07/18 07:44:17;;;;;;;4.60;1.05;;;;;;;34.33;26.00;100057.69;5131705;27;20334;-68
2022/07/18 07:46:44;;;;;;;0.95;0.75;;;;;;;34.38;25.06;100065.13;5131805;28;20197;-68
2022/07/18 07:49:11;;;;;;;1.00;1.00;;;;;;;34.35;23.54;100060.16;5131966;27;20692;-68
2022/07/18 07:51:37;;;;;;;0.82;0.82;;;;;;;34.31;23.16;100059.72;5131386;28;20252;-68
2022/07/18 07:54:05;;;;;;;0.80;0.80;;;;;;;34.46;25.21;100063.19;5131560;28;20194;-62
2022/07/18 07:56:34;;;;;;;0.80;0.80;;;;;;;34.08;23.85;100064.22;5131310;28;20206;-62
2022/07/18 07:59:01;;;;;;;0.85;0.85;;;;;;;34.23;23.51;100052.63;5131598;28;20666;-63
2022/07/18 08:01:28;;;;;;;0.90;0.90;;;;;;;34.00;23.33;100066.94;5131266;27;20322;-63
2022/07/18 08:03:54;;;;;;;2.20;0.80;;;;;;;34.11;23.03;100059.41;5131103;28;20209;-63
2022/07/18 08:06:21;;;;;;;0.88;0.88;;;;;;;34.41;25.54;100062.09;5130899;28;20266;-62
2022/07/18 08:08:48;;;;;;;1.02;0.63;;;;;;;34.45;24.27;100063.34;5131053;28;20206;-63
2022/07/18 08:11:15;;;;;;;0.93;0.93;;;;;;;34.39;22.04;100061.44;5130491;27;20202;-62
2022/07/18 08:13:44;;;;;;;0.70;0.70;;;;;;;34.11;22.88;100062.06;5120593;27;20250;-63
2022/07/18 08:16:10;;;;;;;0.80;0.80;;;;;;;33.69;22.29;100073.22;5118330;27;20582;-62
2022/07/18 08:18:37;;;;;;;1.70;0.93;;;;;;;32.75;22.58;100054.78;5112098;28;20202;-64
2022/07/18 08:21:04;;;;;;;0.93;0.93;;;;;;;32.67;23.89;100054.81;5111633;28;20195;-64
2022/07/18 08:23:31;;;;;;;1.58;0.75;;;;;;;32.62;25.88;100053.69;5123218;27;20222;-63
2022/07/18 08:25:58;;;;;;;0.80;0.80;;;;;;;32.24;24.63;100056.09;5135269;27;20198;-63
2022/07/18 08:28:25;;;;;;;0.80;0.80;;;;;;;32.09;25.08;100049.78;5135477;27;20190;-63
2022/07/18 08:30:53;;;;;;;1.05;1.05;;;;;;;31.70;25.44;100051.44;5134603;27;20285;-63
2022/07/18 08:33:20;;;;;;;0.73;0.73;;;;;;;31.74;26.48;100058.06;5134934;27;20198;-62
2022/07/18 08:35:46;;;;;;;1.25;1.25;;;;;;;31.66;26.67;100043.03;5134809;27;20251;-63
2022/07/18 08:38:13;;;;;;;5.10;1.50;;;;;;;31.81;27.14;100059.06;5120990;27;20193;-63
2022/07/18 08:40:41;;;;;;;1.30;1.15;;;;;;;31.53;27.19;100055.09;5127982;27;20206;-63
2022/07/18 08:43:07;;;;;;;1.10;1.10;;;;;;;31.68;27.29;100054.28;5114370;28;20259;-63
2022/07/18 08:45:35;;;;;;;5.40;1.40;;;;;;;31.57;27.11;100051.94;5129165;27;20214;-63
2022/07/18 08:48:04;;;;;;;1.50;1.40;;;;;;;31.81;28.99;100058.25;5126170;27;20210;-63
2022/07/18 08:50:32;;;;;;;1.08;1.08;;;;;;;31.96;25.98;100057.41;5126573;27;20194;-63
2022/07/18 08:53:00;;;;;;;0.98;0.98;;;;;;;31.55;27.01;100047.81;5125716;27;20574;-63
2022/07/18 08:55:27;;;;;;;1.23;1.17;;;;;;;31.31;26.73;100050.41;5114380;28;20581;-63
2022/07/18 08:57:54;;;;;;;1.00;1.00;;;;;;;31.46;28.78;100051.41;5114316;28;20202;-63
2022/07/18 09:00:21;;;;;;;1.05;1.00;;;;;;;31.73;27.17;100040.50;5134616;27;20186;-62
2022/07/18 09:02:57;;;;;;;1.20;1.20;;;;;;;31.59;28.02;100049.13;5119023;27;20278;-63
2022/07/18 09:05:25;;;;;;;1.25;1.20;;;;;;;31.51;29.15;100046.47;5129057;27;20213;-62
2022/07/18 09:07:52;;;;;;;1.58;1.20;;;;;;;31.52;28.67;100045.47;5125973;27;20197;-63
2022/07/18 09:10:19;;;;;;;0.98;0.98;;;;;;;31.75;29.32;100054.44;5124235;27;20199;-63
2022/07/18 09:12:57;;;;;;;1.20;1.20;;;;;;;31.92;27.93;100053.44;5127814;27;20666;-62
2022/07/18 09:15:24;;;;;;;4.15;1.55;;;;;;;31.77;27.33;100056.91;5133708;27;20205;-63
2022/07/18 09:17:51;;;;;;;1.35;1.25;;;;;;;31.80;27.71;100052.09;5134322;27;20189;-63
2022/07/18 09:20:18;;;;;;;1.33;1.02;;;;;;;31.70;26.09;100051.44;5123854;27;20258;-63
2022/07/18 09:22:48;;;;;;;1.10;1.00;;;;;;;32.12;28.27;100061.88;5122233;27;20552;-62
2022/07/18 09:25:16;;;;;;;1.10;1.10;;;;;;;31.99;27.13;100057.06;5121735;27;20697;-63
2022/07/18 09:27:44;;;;;;;1.88;1.17;;;;;;;31.86;26.17;100051.44;5113754;28;20251;-63
2022/07/18 09:30:24;;;;;;;1.50;1.23;;;;;;;31.90;27.66;100046.63;5122170;27;20199;-63
2022/07/18 09:32:54;;;;;;;2.83;1.40;;;;;;;31.71;28.15;100037.19;5118981;27;20569;-62
2022/07/18 09:35:26;;;;;;;1.60;1.50;;;;;;;31.74;27.73;100058.06;5124027;27;20573;-63
2022/07/18 09:38:00;;;;;;;1.30;1.13;;;;;;;31.47;27.68;100045.94;5128046;27;20293;-63
2022/07/18 09:40:30;;;;;;;1.40;1.33;;;;;;;31.41;27.46;100051.06;5131759;27;20284;-62
2022/07/18 09:42:59;;;;;;;1.45;1.35;;;;;;;31.20;27.59;100047.06;5113395;28;20198;-63
2022/07/18 09:45:29;;;;;;;1.40;1.40;;;;;;;31.19;27.40;100042.75;5113192;28;20568;-62
2022/07/18 09:47:57;;;;;;;2.00;1.10;;;;;;;31.07;27.27;100046.72;5113319;28;20671;-63
2022/07/18 09:50:43;;;;;;;1.70;1.60;;;;;;;31.17;27.47;100028.84;5131276;27;20554;-62
2022/07/18 09:53:16;;;;;;;1.15;1.15;;;;;;;31.25;28.63;100041.25;5133836;27;20284;-63
2022/07/18 09:55:45;;;;;;;3.00;1.85;;;;;;;31.24;28.46;100037.78;5117232;27;20708;-62
2022/07/18 09:58:15;;;;;;;2.65;1.40;;;;;;;31.45;29.87;100041.78;5117549;27;20202;-63
2022/07/18 10:00:42;;;;;;;1.55;1.45;;;;;;;31.41;28.64;100029.84;5118900;27;20236;-63
2022/07/18 10:03:09;;;;;;;1.45;1.45;;;;;;;31.49;28.09;100043.13;5112877;28;20199;-62
2022/07/18 10:05:38;;;;;;;1.20;1.20;;;;;;;31.24;28.20;100029.84;5117584;27;20225;-64
2022/07/18 10:08:08;;;;;;;1.00;1.00;;;;;;;31.31;28.04;100035.31;5124157;27;20679;-62
2022/07/18 10:10:37;;;;;;;1.70;1.15;;;;;;;31.78;28.33;100027.59;5129707;27;20206;-62
2022/07/18 10:13:06;;;;;;;1.63;1.63;;;;;;;31.76;27.27;100028.75;5116760;27;20207;-63
2022/07/18 10:15:35;;;;;;;4.65;1.20;;;;;;;32.06;28.50;100020.94;5112505;27;20206;-63
2022/07/18 10:18:05;;;;;;;1.88;1.15;;;;;;;32.04;27.76;100022.97;5117853;27;20198;-62
2022/07/18 10:20:37;;;;;;;2.20;1.67;;;;;;;32.25;27.62;100020.56;5124519;27;20202;-62
2022/07/18 10:23:19;;;;;;;2.35;1.60;;;;;;;32.49;27.47;100018.84;5124661;27;20194;-64
2022/07/18 10:26:14;;;;;;;1.92;1.30;;;;;;;32.81;27.63;100016.06;5132889;27;20214;-63
2022/07/18 10:29:14;;;;;;;1.27;1.27;;;;;;;32.80;27.70;100014.41;5115660;27;20222;-63
2022/07/18 10:31:59;;;;;;;1.40;1.30;;;;;;;32.73;29.27;100008.16;5122898;27;20199;-62
2022/07/18 10:34:32;;;;;;;1.33;1.33;;;;;;;32.22;29.99;99999.69;5125021;27;20650;-62
2022/07/18 10:37:24;;;;;;;1.58;1.52;;;;;;;32.23;30.99;100000.53;5131588;27;20198;-62
2022/07/18 10:39:51;;;;;;;1.83;1.75;;;;;;;31.82;29.40;99996.28;5129223;27;20198;-63
2022/07/18 10:42:24;;;;;;;2.13;1.90;;;;;;;32.02;30.18;99993.06;5126668;27;20206;-63
2022/07/18 10:44:52;;;;;;;2.35;1.70;;;;;;;32.04;30.31;99995.59;5129852;27;20282;-63
2022/07/18 10:47:23;;;;;;;1.25;1.25;;;;;;;31.99;30.80;100004.00;5120745;27;20291;-63
2022/07/18 10:50:16;;;;;;;2.90;1.67;;;;;;;32.05;32.34;99998.06;5112182;28;20731;-62
2022/07/18 10:52:59;;;;;;;1.65;1.55;;;;;;;31.88;30.00;100001.72;5095232;27;20221;-62
2022/07/18 10:55:31;;;;;;;1.83;1.73;;;;;;;31.77;31.22;99991.44;5132781;27;20193;-63
2022/07/18 10:58:21;;;;;;;1.42;1.35;;;;;;;31.76;31.09;99994.28;5131936;27;20198;-63
2022/07/18 11:00:51;;;;;;;1.85;1.65;;;;;;;31.86;33.05;99993.09;5132139;27;20563;-62
2022/07/18 11:03:27;;;;;;;1.70;1.60;;;;;;;32.15;31.90;99988.09;5132263;27;20198;-63
2022/07/18 11:05:56;;;;;;;2.35;2.28;;;;;;;32.20;29.18;99980.47;5124773;27;20218;-62
2022/07/18 11:08:25;;;;;;;1.60;1.45;;;;;;;32.08;30.33;99963.25;5122244;27;20198;-63
2022/07/18 11:11:11;;;;;;;1.58;1.48;;;;;;;32.38;31.70;99982.88;5115016;27;20245;-63
2022/07/18 11:13:41;;;;;;;1.40;1.40;;;;;;;32.27;30.52;99974.47;5127519;27;20194;-63
2022/07/18 11:16:12;;;;;;;1.77;1.67;;;;;;;32.29;30.74;99977.78;5123866;27;20601;-63
2022/07/18 11:19:18;;;;;;;1.88;1.77;;;;;;;32.39;30.63;99978.41;5116654;27;20677;-62
2022/07/18 11:21:46;;;;;;;1.83;1.73;;;;;;;32.68;30.08;99973.31;5111319;28;20202;-63
2022/07/18 11:24:14;;;;;;;1.85;1.75;;;;;;;32.74;30.72;99962.00;5114373;27;20221;-63
2022/07/18 11:26:45;;;;;;;1.98;1.88;;;;;;;32.62;29.51;99963.41;5116726;27;20195;-62
2022/07/18 11:29:15;;;;;;;1.70;1.60;;;;;;;32.83;32.95;99971.56;5130672;27;20254;-63
2022/07/18 11:31:47;;;;;;;1.88;1.77;;;;;;;32.82;29.65;99969.94;5125697;27;20670;-62
2022/07/18 11:34:14;;;;;;;1.70;1.70;;;;;;;32.63;29.83;99967.72;5113396;28;20199;-63
2022/07/18 11:36:43;;;;;;;1.92;1.83;;;;;;;32.65;29.80;99958.56;5123356;27;20661;-63
2022/07/18 11:39:10;;;;;;;1.60;1.50;;;;;;;32.80;29.51;99961.28;5121789;27;20661;-63